Time;durP1;ratioP1;P1;durP2;ratioP2;P2;SDS_P1;SDS_P2;PMS_P1;PMS_P2;Temp;Humidity;BMP_temperature;BMP_pressure;BME280_temperature;BME280_humidity;BME280_pressure;Samples;Min_cycle;Max_cycle;Signal;HPM_P1;HPM_P2
2023/06/05 00:01:37;;;;;;;5.13;4.73;;;14.60;99.90;;;;;;4991822;28;20682;-65
2023/06/05 00:04:03;;;;;;;5.07;4.70;;;14.50;99.90;;;;;;4990399;28;20956;-65
2023/06/05 00:06:29;;;;;;;5.23;4.83;;;14.50;99.90;;;;;;4991391;28;20204;-65
2023/06/05 00:08:54;;;;;;;5.00;4.70;;;14.50;99.90;;;;;;4991859;28;20173;-65
2023/06/05 00:11:20;;;;;;;5.87;5.47;;;14.50;99.90;;;;;;4991490;28;20169;-65
2023/06/05 00:13:46;;;;;;;5.17;4.87;;;14.50;99.90;;;;;;4991751;28;20220;-65
2023/06/05 00:16:11;;;;;;;5.20;4.90;;;14.40;99.90;;;;;;4991511;28;20623;-65
2023/06/05 00:18:37;;;;;;;5.70;5.40;;;14.40;99.90;;;;;;4991561;28;20173;-65
2023/06/05 00:21:03;;;;;;;7.50;7.00;;;14.40;99.90;;;;;;4991030;28;20231;-65
2023/06/05 00:23:29;;;;;;;7.43;6.93;;;14.40;99.90;;;;;;4991698;28;20162;-65
2023/06/05 00:25:55;;;;;;;5.80;5.30;;;14.40;99.90;;;;;;4991101;28;20267;-65
2023/06/05 00:28:20;;;;;;;5.60;5.20;;;14.40;99.90;;;;;;4991733;28;20256;-65
2023/06/05 00:30:46;;;;;;;5.43;4.93;;;14.30;99.90;;;;;;4991144;28;20290;-66
2023/06/05 00:33:11;;;;;;;5.20;4.90;;;14.20;99.90;;;;;;4991456;28;20188;-66
2023/06/05 00:35:39;;;;;;;7.70;5.17;;;14.20;99.90;;;;;;4991541;28;20291;-65
2023/06/05 00:38:06;;;;;;;5.37;4.87;;;14.10;99.90;;;;;;4991501;28;20184;-65
2023/06/05 00:40:32;;;;;;;5.83;5.30;;;14.00;99.90;;;;;;4991161;28;20609;-66
2023/06/05 00:42:58;;;;;;;5.00;4.70;;;14.00;99.90;;;;;;4990624;28;20165;-65
2023/06/05 00:45:23;;;;;;;5.23;4.90;;;13.90;99.90;;;;;;4991008;28;20177;-65
2023/06/05 00:47:49;;;;;;;5.23;4.37;;;13.80;99.90;;;;;;4990813;28;20212;-65
2023/06/05 00:50:17;;;;;;;4.60;4.30;;;13.70;99.90;;;;;;4991445;28;20201;-65
2023/06/05 00:52:43;;;;;;;5.17;4.77;;;13.70;99.90;;;;;;4994627;28;20188;-65
2023/06/05 00:55:11;;;;;;;4.80;4.50;;;13.70;99.90;;;;;;4994619;28;20181;-66
2023/06/05 00:57:39;;;;;;;5.70;5.40;;;13.70;99.90;;;;;;4994757;28;20282;-65
2023/06/05 01:00:12;;;;;;;5.93;5.43;;;13.70;99.90;;;;;;4993163;28;20210;-65
2023/06/05 01:02:38;;;;;;;5.77;5.37;;;13.70;99.90;;;;;;4994439;28;20196;-65
2023/06/05 01:05:04;;;;;;;5.37;4.97;;;13.70;99.90;;;;;;4994725;28;20534;-65
2023/06/05 01:07:32;;;;;;;6.50;4.60;;;13.70;99.90;;;;;;4994651;28;20196;-65
2023/06/05 01:09:59;;;;;;;5.53;5.03;;;13.60;99.90;;;;;;4994245;28;20647;-66
2023/06/05 01:12:33;;;;;;;5.77;4.50;;;13.60;99.90;;;;;;4994553;28;20183;-65
2023/06/05 01:15:01;;;;;;;4.90;4.57;;;13.50;99.90;;;;;;4994410;28;20187;-65
2023/06/05 01:17:30;;;;;;;5.17;4.87;;;13.50;99.90;;;;;;4994003;28;20628;-65
2023/06/05 01:19:58;;;;;;;5.23;4.87;;;13.40;99.90;;;;;;4993750;28;20185;-65
2023/06/05 01:22:27;;;;;;;6.17;5.23;;;13.40;99.90;;;;;;4994441;28;20587;-65
2023/06/05 01:24:52;;;;;;;5.27;4.90;;;13.30;99.90;;;;;;4994131;28;20180;-65
2023/06/05 01:27:29;;;;;;;5.53;5.03;;;13.20;99.90;;;;;;4994429;28;20220;-66
2023/06/05 01:30:04;;;;;;;5.97;5.50;;;13.20;99.90;;;;;;4993632;28;20184;-65
2023/06/05 01:32:47;;;;;;;6.73;6.23;;;13.00;99.90;;;;;;4994022;28;20180;-66
2023/06/05 01:35:17;;;;;;;6.80;6.37;;;12.90;99.90;;;;;;4994126;28;20212;-65
2023/06/05 01:37:48;;;;;;;6.03;5.60;;;12.90;99.90;;;;;;4993644;28;20208;-65
2023/06/05 01:40:16;;;;;;;5.27;4.97;;;12.80;99.90;;;;;;4993612;28;20607;-65
2023/06/05 01:42:42;;;;;;;8.97;5.30;;;12.80;99.90;;;;;;4994103;28;20173;-65
2023/06/05 01:45:10;;;;;;;5.97;5.33;;;12.70;99.90;;;;;;4993981;28;20169;-65
2023/06/05 01:47:37;;;;;;;5.33;4.93;;;12.70;99.90;;;;;;4993732;28;20262;-65
2023/06/05 01:50:03;;;;;;;6.63;6.23;;;12.60;99.90;;;;;;4993112;28;20217;-65
2023/06/05 01:52:29;;;;;;;6.10;5.60;;;12.60;99.90;;;;;;4993675;28;20216;-66
2023/06/05 01:54:59;;;;;;;6.13;5.73;;;12.50;99.90;;;;;;4993269;28;20216;-65
2023/06/05 01:57:27;;;;;;;6.10;5.70;;;12.40;99.90;;;;;;4993829;28;20581;-65
2023/06/05 01:59:53;;;;;;;7.63;6.30;;;12.40;99.90;;;;;;4993146;28;20180;-65
2023/06/05 02:02:21;;;;;;;6.73;6.33;;;12.40;99.90;;;;;;4993079;28;20686;-66
2023/06/05 02:04:47;;;;;;;6.53;5.03;;;12.30;99.90;;;;;;4993275;28;20264;-65
2023/06/05 02:07:14;;;;;;;6.50;5.90;;;12.30;99.90;;;;;;4993264;28;20201;-65
2023/06/05 02:09:40;;;;;;;5.93;5.30;;;12.20;99.90;;;;;;4993137;28;20176;-65
2023/06/05 02:12:07;;;;;;;6.90;5.53;;;12.20;99.90;;;;;;4993033;28;20630;-65
2023/06/05 02:14:35;;;;;;;6.27;5.77;;;12.20;99.90;;;;;;4993346;28;20172;-66
2023/06/05 02:17:04;;;;;;;5.80;5.30;;;12.20;99.90;;;;;;4992567;28;20217;-65
2023/06/05 02:19:30;;;;;;;5.77;5.37;;;12.20;99.90;;;;;;4993151;28;20717;-66
2023/06/05 02:21:56;;;;;;;6.40;6.00;;;12.20;99.90;;;;;;4992988;28;20389;-65
2023/06/05 02:24:22;;;;;;;5.93;5.57;;;12.20;99.90;;;;;;4993159;28;20165;-66
2023/06/05 02:26:48;;;;;;;6.40;5.90;;;12.20;99.90;;;;;;4992778;28;20212;-65
2023/06/05 02:29:14;;;;;;;9.40;5.70;;;12.20;99.90;;;;;;4992875;28;20188;-65
2023/06/05 02:31:39;;;;;;;8.67;5.97;;;12.20;99.90;;;;;;4992321;28;20196;-65
2023/06/05 02:34:05;;;;;;;7.97;6.33;;;12.20;99.90;;;;;;4993765;28;20184;-71
2023/06/05 02:36:32;;;;;;;8.70;6.80;;;12.20;99.90;;;;;;4994103;28;20217;-72
2023/06/05 02:38:59;;;;;;;6.67;6.00;;;12.20;99.90;;;;;;4993961;28;20184;-71
2023/06/05 02:41:26;;;;;;;6.73;6.13;;;12.20;99.90;;;;;;4993689;28;20591;-69
2023/06/05 02:43:55;;;;;;;7.37;6.67;;;12.20;99.90;;;;;;4993765;28;20589;-69
2023/06/05 02:46:24;;;;;;;7.03;6.40;;;12.30;99.90;;;;;;4993970;28;20231;-71
2023/06/05 02:48:51;;;;;;;7.13;5.97;;;12.30;99.90;;;;;;4993324;28;20615;-74
2023/06/05 02:51:16;;;;;;;7.60;6.10;;;12.40;99.90;;;;;;4993399;28;20204;-69
2023/06/05 02:53:42;;;;;;;6.40;5.90;;;12.40;99.90;;;;;;4993735;28;20204;-71
2023/06/05 02:56:08;;;;;;;7.40;6.00;;;12.40;99.90;;;;;;4993520;28;20211;-73
2023/06/05 02:58:33;;;;;;;7.07;6.47;;;12.40;99.90;;;;;;4992336;28;20187;-72
2023/06/05 03:01:02;;;;;;;6.33;5.93;;;12.50;99.90;;;;;;4992968;28;20177;-71
2023/06/05 03:03:31;;;;;;;7.33;5.93;;;12.50;99.90;;;;;;4993346;28;20669;-71
2023/06/05 03:06:04;;;;;;;9.93;6.10;;;12.40;99.90;;;;;;4993742;28;20204;-70
2023/06/05 03:08:38;;;;;;;6.73;6.13;;;12.40;99.90;;;;;;4994017;28;20268;-72
2023/06/05 03:11:05;;;;;;;9.67;6.43;;;12.40;99.90;;;;;;4993724;28;20185;-70
2023/06/05 03:13:32;;;;;;;7.40;6.70;;;12.40;99.90;;;;;;4992842;28;20195;-72
2023/06/05 03:16:00;;;;;;;6.73;6.03;;;12.40;99.90;;;;;;4993437;28;20205;-69
2023/06/05 03:18:30;;;;;;;6.80;5.37;;;12.40;99.90;;;;;;4993621;28;20180;-70
2023/06/05 03:20:56;;;;;;;6.70;6.10;;;12.40;99.90;;;;;;4993408;28;20184;-70
2023/06/05 03:23:27;;;;;;;7.57;6.47;;;12.30;99.90;;;;;;4993450;28;20715;-72
2023/06/05 03:25:54;;;;;;;7.50;6.70;;;12.30;99.90;;;;;;4992720;28;20266;-71
2023/06/05 03:28:21;;;;;;;7.37;6.43;;;12.30;99.90;;;;;;4993505;28;20722;-68
2023/06/05 03:30:47;;;;;;;9.40;6.60;;;12.40;99.90;;;;;;4993080;28;20639;-69
2023/06/05 03:33:13;;;;;;;6.33;5.83;;;12.40;99.90;;;;;;4991900;28;20196;-72
2023/06/05 03:35:42;;;;;;;7.77;6.73;;;12.40;99.90;;;;;;4993418;28;20216;-72
2023/06/05 03:38:09;;;;;;;7.20;6.50;;;12.30;99.90;;;;;;4993910;28;20166;-68
2023/06/05 03:40:35;;;;;;;7.63;6.33;;;12.30;99.90;;;;;;4992938;28;20608;-72
2023/06/05 03:43:01;;;;;;;7.10;6.60;;;12.30;99.90;;;;;;4993526;28;20200;-71
2023/06/05 03:45:27;;;;;;;7.60;6.90;;;12.30;99.90;;;;;;4993380;28;20200;-71
2023/06/05 03:47:53;;;;;;;8.10;7.17;;;12.30;99.90;;;;;;4993399;28;20212;-72
2023/06/05 03:50:20;;;;;;;7.73;7.03;;;12.30;99.90;;;;;;4991948;28;20212;-72
2023/06/05 03:52:52;;;;;;;7.30;6.70;;;12.30;99.90;;;;;;4992855;28;20651;-71
2023/06/05 03:55:19;;;;;;;9.07;6.13;;;12.30;99.90;;;;;;4991754;28;20169;-66
2023/06/05 03:57:47;;;;;;;7.07;5.97;;;12.30;99.90;;;;;;4991584;28;20251;-66
2023/06/05 04:00:14;;;;;;;12.73;6.97;;;12.40;99.90;;;;;;4991365;28;20264;-66
2023/06/05 04:02:41;;;;;;;6.87;6.37;;;12.40;99.90;;;;;;4990759;28;20204;-66
2023/06/05 04:05:11;;;;;;;6.97;6.37;;;12.40;99.90;;;;;;4991521;28;20247;-66
2023/06/05 04:07:37;;;;;;;9.67;6.90;;;12.40;99.90;;;;;;4992025;28;20204;-66
2023/06/05 04:10:03;;;;;;;7.43;6.67;;;12.40;99.90;;;;;;4991434;28;20547;-66
2023/06/05 04:12:28;;;;;;;6.80;6.10;;;12.40;99.90;;;;;;4991750;28;20177;-66
2023/06/05 04:14:54;;;;;;;7.63;6.90;;;12.50;99.90;;;;;;4991564;28;20257;-66
2023/06/05 04:17:19;;;;;;;9.20;6.57;;;12.60;99.90;;;;;;4991387;28;20722;-66
2023/06/05 04:19:45;;;;;;;8.63;7.07;;;12.60;99.90;;;;;;4991451;28;20230;-66
2023/06/05 04:22:11;;;;;;;7.70;6.93;;;12.60;99.90;;;;;;4991570;28;20709;-66
2023/06/05 04:24:39;;;;;;;9.07;7.43;;;12.70;99.90;;;;;;4991817;28;20183;-66
2023/06/05 04:27:04;;;;;;;9.47;7.37;;;12.70;99.90;;;;;;4995152;28;20647;-66
2023/06/05 04:29:32;;;;;;;7.47;6.80;;;12.70;99.90;;;;;;4995236;28;20322;-66
2023/06/05 04:31:58;;;;;;;7.67;7.07;;;12.80;99.90;;;;;;4995047;28;20185;-66
2023/06/05 04:34:24;;;;;;;7.57;6.83;;;12.80;99.90;;;;;;4995173;28;20185;-66
2023/06/05 04:36:51;;;;;;;9.83;6.40;;;13.00;99.90;;;;;;4994933;28;20219;-66
2023/06/05 04:39:18;;;;;;;7.43;6.20;;;13.20;99.90;;;;;;4994910;28;20252;-66
2023/06/05 04:41:45;;;;;;;7.93;7.23;;;13.40;99.90;;;;;;4995098;28;20235;-66
2023/06/05 04:44:16;;;;;;;8.70;6.80;;;13.60;99.90;;;;;;4994930;28;20536;-66
2023/06/05 04:46:45;;;;;;;9.03;8.23;;;13.80;99.90;;;;;;4994490;28;20537;-66
2023/06/05 04:49:12;;;;;;;7.73;6.33;;;13.90;99.90;;;;;;4994928;28;20185;-66
2023/06/05 04:51:38;;;;;;;7.00;6.43;;;14.00;99.90;;;;;;4994953;28;20177;-66
2023/06/05 04:54:05;;;;;;;9.90;9.10;;;14.10;99.90;;;;;;4994764;28;20184;-66
2023/06/05 04:56:32;;;;;;;7.87;7.33;;;14.20;99.90;;;;;;4994775;28;20215;-66
2023/06/05 04:58:59;;;;;;;9.77;9.00;;;14.30;99.90;;;;;;4993800;28;20176;-66
2023/06/05 05:01:25;;;;;;;9.10;8.30;;;14.50;99.90;;;;;;4994270;28;20220;-66
2023/06/05 05:03:50;;;;;;;8.87;7.43;;;14.60;99.90;;;;;;4994659;28;20176;-66
2023/06/05 05:06:17;;;;;;;7.53;6.43;;;14.80;99.90;;;;;;4994119;28;20759;-66
2023/06/05 05:08:45;;;;;;;7.20;5.73;;;14.90;99.90;;;;;;4994587;28;20181;-66
2023/06/05 05:11:11;;;;;;;8.43;5.80;;;15.10;99.90;;;;;;4994216;28;20184;-66
2023/06/05 05:13:37;;;;;;;7.30;5.93;;;15.30;99.90;;;;;;4994670;28;20528;-66
2023/06/05 05:16:03;;;;;;;7.60;6.13;;;15.50;99.90;;;;;;4994100;28;20221;-66
2023/06/05 05:18:29;;;;;;;6.57;5.97;;;15.70;99.90;;;;;;4994549;28;20539;-66
2023/06/05 05:20:55;;;;;;;6.90;6.13;;;15.90;99.90;;;;;;4993335;28;20271;-66
2023/06/05 05:23:21;;;;;;;7.27;5.77;;;16.00;99.90;;;;;;4994352;28;20200;-66
2023/06/05 05:25:47;;;;;;;8.20;6.13;;;16.10;99.90;;;;;;4994000;28;20215;-66
2023/06/05 05:28:13;;;;;;;6.83;6.00;;;16.00;99.90;;;;;;4993006;28;20177;-68
2023/06/05 05:30:39;;;;;;;7.80;7.00;;;16.00;99.90;;;;;;4994040;28;20384;-68
2023/06/05 05:33:04;;;;;;;10.93;7.03;;;16.00;99.90;;;;;;4994137;28;20694;-68
2023/06/05 05:35:30;;;;;;;7.57;6.87;;;16.00;99.90;;;;;;4993707;28;20192;-65
2023/06/05 05:37:56;;;;;;;8.03;7.23;;;15.90;99.90;;;;;;4993252;28;20179;-65
2023/06/05 05:40:22;;;;;;;6.63;6.03;;;15.90;99.90;;;;;;4993875;28;20463;-65
2023/06/05 05:42:47;;;;;;;10.60;6.43;;;16.00;99.90;;;;;;4993270;28;20197;-65
2023/06/05 05:45:13;;;;;;;7.73;6.93;;;16.00;99.90;;;;;;4993687;28;20215;-66
2023/06/05 05:47:39;;;;;;;7.87;7.07;;;16.40;99.90;;;;;;4993914;28;20192;-65
2023/06/05 05:50:05;;;;;;;7.40;6.00;;;16.60;99.90;;;;;;4993290;28;20196;-65
2023/06/05 05:52:31;;;;;;;8.03;6.40;;;16.80;99.90;;;;;;4993471;28;20670;-65
2023/06/05 05:54:58;;;;;;;6.43;5.80;;;17.10;99.90;;;;;;4991992;28;20214;-65
2023/06/05 05:57:24;;;;;;;8.20;5.77;;;17.30;99.90;;;;;;4993366;28;20205;-65
2023/06/05 05:59:50;;;;;;;9.65;6.30;;;17.80;99.90;;;;;;4993259;28;20165;-65
2023/06/05 06:02:17;;;;;;;7.00;6.40;;;18.10;99.90;;;;;;4993676;28;20697;-65
2023/06/05 06:04:46;;;;;;;9.05;7.80;;;18.30;99.90;;;;;;4993131;28;20177;-65
2023/06/05 06:07:12;;;;;;;7.40;5.95;;;18.40;99.90;;;;;;4992934;28;20209;-65
2023/06/05 06:09:37;;;;;;;7.47;6.68;;;18.60;99.90;;;;;;4992543;28;20179;-65
2023/06/05 06:12:05;;;;;;;6.25;5.65;;;18.90;99.90;;;;;;4992911;28;20272;-65
2023/06/05 06:14:32;;;;;;;6.32;4.80;;;19.20;99.90;;;;;;4993024;28;20185;-65
2023/06/05 06:16:58;;;;;;;8.52;5.35;;;19.50;99.90;;;;;;4991661;28;20654;-65
2023/06/05 06:19:24;;;;;;;7.60;6.45;;;19.80;99.90;;;;;;4991158;28;20459;-65
2023/06/05 06:21:52;;;;;;;5.90;5.40;;;20.10;99.90;;;;;;4992101;28;20271;-65
2023/06/05 06:24:22;;;;;;;5.82;5.25;;;20.50;99.90;;;;;;4992318;28;20173;-65
2023/06/05 06:26:48;;;;;;;6.57;5.82;;;20.50;99.90;;;;;;4992741;28;20201;-65
2023/06/05 06:29:18;;;;;;;7.30;6.55;;;20.50;99.90;;;;;;4992710;28;20181;-65
2023/06/05 06:31:44;;;;;;;5.22;4.72;;;20.70;99.90;;;;;;4992943;28;20169;-65
2023/06/05 06:34:10;;;;;;;7.60;5.75;;;20.90;99.90;;;;;;4991785;28;20557;-65
2023/06/05 06:36:40;;;;;;;7.53;5.78;;;21.10;99.90;;;;;;4991576;28;20209;-65
2023/06/05 06:39:09;;;;;;;6.20;5.60;;;21.30;99.90;;;;;;4991246;28;20183;-65
2023/06/05 06:41:36;;;;;;;7.88;5.30;;;21.40;99.90;;;;;;4991799;28;20583;-65
2023/06/05 06:44:02;;;;;;;6.05;5.40;;;21.60;99.90;;;;;;4992807;28;20798;-65
2023/06/05 06:46:28;;;;;;;6.00;4.65;;;21.70;99.90;;;;;;4990591;28;20667;-65
2023/06/05 06:48:53;;;;;;;5.93;5.22;;;22.10;99.90;;;;;;4992097;28;20506;-65
2023/06/05 06:51:21;;;;;;;6.55;4.72;;;22.40;99.90;;;;;;4991733;28;20339;-65
2023/06/05 06:53:48;;;;;;;11.32;5.65;;;22.50;99.90;;;;;;4991349;28;20259;-66
2023/06/05 06:56:17;;;;;;;5.78;4.82;;;22.50;99.90;;;;;;4992355;28;20219;-65
2023/06/05 06:58:45;;;;;;;8.63;5.43;;;22.60;99.90;;;;;;4992503;28;20223;-65
2023/06/05 07:01:11;;;;;;;158.23;16.80;;;23.00;99.90;;;;;;4992176;28;20165;-65
2023/06/05 07:03:38;;;;;;;5.53;5.03;;;23.30;99.90;;;;;;4992115;28;20169;-65
2023/06/05 07:06:03;;;;;;;8.65;4.63;;;23.50;99.90;;;;;;4991893;28;20204;-65
2023/06/05 07:08:29;;;;;;;5.38;4.30;;;23.80;99.90;;;;;;4992125;28;20207;-65
2023/06/05 07:10:55;;;;;;;6.13;4.45;;;24.20;99.90;;;;;;4991050;28;20712;-65
2023/06/05 07:13:21;;;;;;;7.57;4.05;;;24.70;99.90;;;;;;4991489;28;20231;-65
2023/06/05 07:15:49;;;;;;;8.13;5.20;;;24.90;99.90;;;;;;4991516;28;20229;-65
2023/06/05 07:18:17;;;;;;;10.68;4.40;;;25.00;99.90;;;;;;4991727;28;20663;-65
2023/06/05 07:20:42;;;;;;;8.20;4.53;;;25.00;99.90;;;;;;4992044;28;20184;-65
2023/06/05 07:23:08;;;;;;;7.35;5.07;;;25.20;99.90;;;;;;4991800;28;20169;-66
2023/06/05 07:25:33;;;;;;;7.65;4.40;;;25.20;99.90;;;;;;4992023;28;20193;-65
2023/06/05 07:28:00;;;;;;;5.15;4.65;;;25.30;99.90;;;;;;4992274;28;20200;-65
2023/06/05 07:30:28;;;;;;;5.95;5.05;;;25.60;99.90;;;;;;4991265;28;20179;-66
2023/06/05 07:32:54;;;;;;;8.23;4.72;;;26.00;99.90;;;;;;4992021;28;20208;-66
2023/06/05 07:35:20;;;;;;;8.00;5.32;;;26.10;99.90;;;;;;4992099;28;20197;-65
2023/06/05 07:37:46;;;;;;;5.38;4.80;;;26.50;99.90;;;;;;4992084;28;20240;-65
2023/06/05 07:40:12;;;;;;;6.85;4.70;;;26.70;99.90;;;;;;4991495;28;20247;-66
2023/06/05 07:42:37;;;;;;;6.88;4.53;;;26.90;99.90;;;;;;4992073;28;20579;-65
2023/06/05 07:45:03;;;;;;;4.40;4.05;;;27.20;99.90;;;;;;4991586;28;20781;-66
2023/06/05 07:47:29;;;;;;;5.25;4.35;;;27.20;99.90;;;;;;4991999;28;20208;-66
2023/06/05 07:49:59;;;;;;;4.82;4.40;;;27.60;99.90;;;;;;4991312;28;20172;-66
2023/06/05 07:52:26;;;;;;;7.32;6.05;;;27.70;99.90;;;;;;4991830;28;20175;-65
2023/06/05 07:54:51;;;;;;;7.25;6.70;;;27.70;99.90;;;;;;4991776;28;20173;-65
2023/06/05 07:57:17;;;;;;;5.70;5.22;;;27.50;99.90;;;;;;4991652;28;20752;-65
2023/06/05 07:59:43;;;;;;;6.50;4.65;;;27.60;99.90;;;;;;4990514;28;20168;-65
2023/06/05 08:02:09;;;;;;;6.38;5.35;;;27.40;99.90;;;;;;4995798;28;20304;-66
2023/06/05 08:04:35;;;;;;;5.43;4.93;;;27.50;99.90;;;;;;4995589;28;20542;-66
2023/06/05 08:07:01;;;;;;;7.22;4.30;;;27.80;99.90;;;;;;4995380;28;20721;-65
2023/06/05 08:09:26;;;;;;;7.78;5.63;;;28.30;99.90;;;;;;4995668;28;20693;-65
2023/06/05 08:11:52;;;;;;;8.05;7.25;;;28.40;99.90;;;;;;4995572;28;20216;-65
2023/06/05 08:14:17;;;;;;;5.88;5.35;;;28.30;99.90;;;;;;4995694;28;20215;-66
2023/06/05 08:16:43;;;;;;;5.43;4.80;;;28.40;99.90;;;;;;4995270;28;20207;-65
2023/06/05 08:19:09;;;;;;;5.43;4.93;;;28.40;99.90;;;;;;4995138;28;20662;-66
2023/06/05 08:21:36;;;;;;;4.78;3.83;;;28.90;99.90;;;;;;4995574;28;20520;-66
2023/06/05 08:24:02;;;;;;;5.10;4.50;;;29.30;99.90;;;;;;4995576;28;20266;-66
2023/06/05 08:26:28;;;;;;;8.80;4.88;;;29.40;99.90;;;;;;4995317;28;20240;-66
2023/06/05 08:28:53;;;;;;;6.82;4.15;;;29.60;99.60;;;;;;4995447;28;20255;-66
2023/06/05 08:31:20;;;;;;;6.13;3.78;;;29.70;99.90;;;;;;4994609;28;20654;-66
2023/06/05 08:33:46;;;;;;;4.05;3.33;;;29.60;99.90;;;;;;4993444;28;20177;-66
2023/06/05 08:36:11;;;;;;;4.38;3.83;;;29.60;99.90;;;;;;4994571;28;20299;-65
2023/06/05 08:38:37;;;;;;;5.75;4.07;;;30.00;99.90;;;;;;4995029;28;20173;-66
2023/06/05 08:41:05;;;;;;;6.20;3.50;;;30.60;99.90;;;;;;4994409;28;20769;-66
2023/06/05 08:43:31;;;;;;;5.88;4.07;;;30.80;99.90;;;;;;4995016;28;20184;-66
2023/06/05 08:45:57;;;;;;;4.47;4.05;;;30.60;98.40;;;;;;4994191;28;20278;-65
2023/06/05 08:48:24;;;;;;;4.53;3.75;;;30.30;97.80;;;;;;4994525;28;20670;-66
2023/06/05 08:50:51;;;;;;;3.88;3.40;;;30.30;99.00;;;;;;4992459;28;20189;-66
2023/06/05 08:53:18;;;;;;;3.92;3.63;;;30.30;96.90;;;;;;4995165;28;20176;-66
2023/06/05 08:55:50;;;;;;;5.15;3.67;;;30.20;98.80;;;;;;4993863;28;20212;-66
2023/06/05 08:58:16;;;;;;;4.90;4.00;;;30.30;98.60;;;;;;4993611;28;20175;-66
2023/06/05 09:00:42;;;;;;;4.10;3.70;;;30.30;96.60;;;;;;4994613;28;20207;-67
2023/06/05 09:03:15;;;;;;;9.10;4.32;;;30.40;94.80;;;;;;4993621;28;20538;-66
2023/06/05 09:05:40;;;;;;;3.95;3.50;;;30.30;96.80;;;;;;4994812;28;20193;-66
2023/06/05 09:08:06;;;;;;;4.80;4.30;;;29.80;96.00;;;;;;4993364;28;20237;-66
2023/06/05 09:10:32;;;;;;;3.58;3.28;;;29.90;96.60;;;;;;4994435;28;20194;-66
2023/06/05 09:13:00;;;;;;;6.53;4.55;;;30.00;95.60;;;;;;4993186;28;20185;-66
2023/06/05 09:15:30;;;;;;;6.18;3.40;;;30.30;96.30;;;;;;4994354;28;20193;-66
2023/06/05 09:18:14;;;;;;;4.20;3.60;;;30.50;97.60;;;;;;4994554;28;20169;-66
2023/06/05 09:20:42;;;;;;;4.57;3.88;;;30.50;96.90;;;;;;4994040;28;20176;-66
2023/06/05 09:23:26;;;;;;;3.70;3.40;;;30.50;96.70;;;;;;4994107;28;20177;-66
2023/06/05 09:26:03;;;;;;;4.40;3.38;;;30.40;96.20;;;;;;4994132;28;20581;-66
2023/06/05 09:28:29;;;;;;;6.40;3.83;;;30.60;95.60;;;;;;4990927;28;20185;-66
2023/06/05 09:31:04;;;;;;;5.10;3.28;;;30.50;95.70;;;;;;4993768;28;20575;-66
2023/06/05 09:33:32;;;;;;;3.15;2.95;;;30.30;94.10;;;;;;4994242;28;20181;-66
2023/06/05 09:36:11;;;;;;;4.68;3.30;;;30.20;95.00;;;;;;4993801;28;20207;-66
2023/06/05 09:38:39;;;;;;;3.72;3.15;;;30.40;91.60;;;;;;4994229;28;20590;-66
2023/06/05 09:41:09;;;;;;;4.10;3.30;;;30.70;91.80;;;;;;4993723;28;20204;-66
2023/06/05 09:43:39;;;;;;;4.65;4.05;;;31.00;90.80;;;;;;4994348;28;20170;-66
2023/06/05 09:46:15;;;;;;;4.10;3.70;;;30.90;93.60;;;;;;4994007;28;20505;-66
2023/06/05 09:48:45;;;;;;;4.30;3.83;;;31.00;91.10;;;;;;4994144;28;20537;-66
2023/06/05 09:51:13;;;;;;;3.50;2.88;;;31.20;91.10;;;;;;4993745;28;20181;-67
2023/06/05 09:53:46;;;;;;;4.78;3.40;;;31.70;91.40;;;;;;4994128;28;20184;-67
2023/06/05 09:56:13;;;;;;;3.47;3.17;;;31.60;90.80;;;;;;4993943;28;20215;-67
2023/06/05 09:58:48;;;;;;;3.55;3.35;;;31.30;86.60;;;;;;4994218;28;20168;-66
2023/06/05 10:01:17;;;;;;;3.88;3.50;;;30.80;82.40;;;;;;4994117;28;20570;-66
2023/06/05 10:03:57;;;;;;;3.15;2.92;;;30.30;85.90;;;;;;4994039;28;20176;-66
2023/06/05 10:06:24;;;;;;;4.22;3.83;;;30.40;91.60;;;;;;4993711;28;20261;-66
2023/06/05 10:08:52;;;;;;;4.18;3.75;;;30.40;91.00;;;;;;4994264;28;20642;-66
2023/06/05 10:11:20;;;;;;;3.63;3.33;;;30.70;92.10;;;;;;4993175;28;20184;-66
2023/06/05 10:13:48;;;;;;;3.40;3.15;;;30.80;87.80;;;;;;4994322;28;20181;-66
2023/06/05 10:16:14;;;;;;;5.07;3.45;;;30.50;81.90;;;;;;4993531;28;20205;-66
2023/06/05 10:18:40;;;;;;;2.78;2.58;;;30.60;85.20;;;;;;4993519;28;20805;-66
2023/06/05 10:21:06;;;;;;;4.00;3.67;;;30.90;85.10;;;;;;4992991;28;20188;-66
2023/06/05 10:23:33;;;;;;;3.45;3.15;;;31.40;84.10;;;;;;4993210;28;20173;-66
2023/06/05 10:26:06;;;;;;;3.88;3.55;;;31.80;84.20;;;;;;4992341;28;20213;-66
2023/06/05 10:28:56;;;;;;;3.40;3.10;;;32.20;79.40;;;;;;4993425;28;20175;-66
2023/06/05 10:31:45;;;;;;;3.72;3.40;;;32.40;80.40;;;;;;4992899;28;20169;-66
2023/06/05 10:35:03;;;;;;;3.60;3.40;;;31.90;73.10;;;;;;4993263;28;20231;-66
2023/06/05 10:38:04;;;;;;;3.50;3.00;;;31.40;77.00;;;;;;4950327;28;20225;-67
2023/06/05 10:40:30;;;;;;;3.70;3.40;;;31.20;70.10;;;;;;4993065;28;20229;-65
2023/06/05 10:43:34;;;;;;;5.38;3.35;;;30.60;72.00;;;;;;4992941;28;20216;-66
2023/06/05 10:46:01;;;;;;;5.97;2.97;;;30.60;76.10;;;;;;4992524;28;20199;-66
2023/06/05 10:49:04;;;;;;;3.65;3.33;;;31.00;72.80;;;;;;4993041;28;20200;-66
2023/06/05 10:51:43;;;;;;;3.65;3.22;;;30.70;72.70;;;;;;4992842;28;20175;-66
2023/06/05 10:54:16;;;;;;;4.63;3.13;;;30.90;71.60;;;;;;4992720;28;20169;-66
2023/06/05 10:56:53;;;;;;;4.22;3.70;;;31.20;70.00;;;;;;4992636;28;20200;-66
2023/06/05 10:59:20;;;;;;;4.18;3.55;;;31.00;70.20;;;;;;4992600;28;20171;-66
2023/06/05 11:02:08;;;;;;;4.70;3.25;;;31.10;71.40;;;;;;4992697;28;20176;-66
2023/06/05 11:04:49;;;;;;;5.03;3.67;;;31.30;74.10;;;;;;4992976;28;20172;-65
2023/06/05 11:07:15;;;;;;;8.63;3.20;;;31.50;68.00;;;;;;4992597;28;20555;-66
2023/06/05 11:10:04;;;;;;;4.03;2.97;;;31.30;68.80;;;;;;4980551;28;20232;-66
2023/06/05 11:12:42;;;;;;;4.43;3.20;;;31.10;69.30;;;;;;4980388;28;20183;-66
2023/06/05 11:15:08;;;;;;;3.42;3.20;;;31.10;72.20;;;;;;4992631;28;20587;-66
2023/06/05 11:17:45;;;;;;;5.70;4.03;;;31.00;68.00;;;;;;4992512;28;20580;-67
2023/06/05 11:20:22;;;;;;;3.95;3.67;;;31.30;71.40;;;;;;4991954;28;20264;-66
2023/06/05 11:22:57;;;;;;;4.88;3.70;;;31.60;71.40;;;;;;4991371;28;20260;-67
2023/06/05 11:25:30;;;;;;;4.78;3.72;;;31.70;69.70;;;;;;4972894;28;20264;-66
2023/06/05 11:28:07;;;;;;;3.92;3.40;;;31.70;65.80;;;;;;4971738;28;20207;-66
2023/06/05 11:30:43;;;;;;;4.35;3.95;;;31.40;67.20;;;;;;4972602;28;20547;-66
2023/06/05 11:33:14;;;;;;;5.47;3.40;;;31.20;71.00;;;;;;4984205;28;20180;-66
2023/06/05 11:35:42;;;;;;;4.80;3.45;;;31.40;69.70;;;;;;4974664;28;20216;-66
2023/06/05 11:38:18;;;;;;;5.40;3.47;;;31.80;74.20;;;;;;4972620;28;20180;-66
2023/06/05 11:40:44;;;;;;;4.10;3.80;;;31.90;67.50;;;;;;4972526;28;20181;-66
2023/06/05 11:43:11;;;;;;;4.32;3.42;;;32.00;65.20;;;;;;4972453;28;20196;-66
2023/06/05 11:45:40;;;;;;;4.00;3.30;;;31.80;76.50;;;;;;4972522;28;20181;-66
2023/06/05 11:48:06;;;;;;;4.15;3.75;;;31.70;65.30;;;;;;4972392;28;20178;-66
2023/06/05 11:50:32;;;;;;;5.18;3.45;;;31.50;69.70;;;;;;4972622;28;20236;-66
2023/06/05 11:53:08;;;;;;;4.40;3.10;;;31.00;65.80;;;;;;4972598;28;20177;-66
2023/06/05 11:58:24;;;;;;;4.88;3.17;;;31.30;71.00;;;;;;4972650;28;20709;-66
2023/06/05 12:00:51;;;;;;;5.65;3.72;;;31.60;65.60;;;;;;4987549;28;20184;-66
2023/06/05 12:03:20;;;;;;;3.40;3.10;;;31.50;68.40;;;;;;4991904;28;20172;-66
2023/06/05 12:05:48;;;;;;;4.43;3.70;;;31.90;74.00;;;;;;4991582;28;20218;-66
2023/06/05 12:08:28;;;;;;;4.25;3.70;;;31.70;68.70;;;;;;4992016;28;20710;-66
2023/06/05 12:10:56;;;;;;;4.00;3.60;;;32.10;70.80;;;;;;4991637;28;20168;-66
2023/06/05 12:13:22;;;;;;;4.00;3.30;;;32.30;71.80;;;;;;4992056;28;20188;-66
2023/06/05 12:15:58;;;;;;;3.85;3.30;;;32.10;68.50;;;;;;4991777;28;20582;-66
2023/06/05 12:18:33;;;;;;;3.30;3.03;;;31.70;64.70;;;;;;4992043;28;20180;-66
2023/06/05 12:20:59;;;;;;;4.13;3.50;;;31.60;66.10;;;;;;4991359;28;20664;-66
2023/06/05 12:23:25;;;;;;;3.72;3.42;;;31.40;67.40;;;;;;4991972;28;20219;-66
2023/06/05 12:26:04;;;;;;;3.22;3.03;;;31.20;64.70;;;;;;4990894;28;20236;-66
2023/06/05 12:28:31;;;;;;;3.45;3.17;;;31.40;67.60;;;;;;4991576;28;20173;-67
2023/06/05 12:30:57;;;;;;;4.10;3.10;;;31.70;67.30;;;;;;4990249;28;20701;-66
2023/06/05 12:33:26;;;;;;;3.97;3.33;;;31.80;66.40;;;;;;4990101;28;20212;-67
2023/06/05 12:36:07;;;;;;;7.55;3.40;;;31.50;69.90;;;;;;4990826;28;20197;-66
2023/06/05 12:38:42;;;;;;;3.88;3.50;;;31.10;62.60;;;;;;4992210;28;20758;-66
2023/06/05 12:41:08;;;;;;;7.15;4.30;;;31.00;67.90;;;;;;4990595;28;20227;-66
2023/06/05 12:43:35;;;;;;;6.38;3.75;;;30.90;71.10;;;;;;4991623;28;20173;-66
2023/06/05 12:46:01;;;;;;;5.18;3.72;;;31.10;69.80;;;;;;4974940;28;20206;-67
2023/06/05 12:48:27;;;;;;;4.30;3.67;;;31.10;64.10;;;;;;4976086;28;20267;-67
2023/06/05 12:50:54;;;;;;;6.85;3.30;;;30.50;65.50;;;;;;4975352;28;20212;-67
2023/06/05 12:53:20;;;;;;;4.65;4.22;;;30.20;67.20;;;;;;4975716;28;20178;-66
2023/06/05 12:55:45;;;;;;;4.22;3.90;;;30.20;67.30;;;;;;4975258;28;20197;-66